sensor_id;sensor_type;location;lat;lon;timestamp;pressure;altitude;pressure_sealevel;temperature;humidity
11605;BME280;5858;43.076;25.626;2023-03-13T00:01:10;99732.25;;;6.55;51.43
11605;BME280;5858;43.076;25.626;2023-03-13T00:03:39;99712.41;;;6.22;51.73
11605;BME280;5858;43.076;25.626;2023-03-13T00:06:16;99625.16;;;5.80;52.05
11605;BME280;5858;43.076;25.626;2023-03-13T00:09:21;99545.69;;;5.22;52.28
11605;BME280;5858;43.076;25.626;2023-03-13T00:11:59;99615.66;;;5.78;52.00
11605;BME280;5858;43.076;25.626;2023-03-13T00:17:59;99736.25;;;6.41;52.23
11605;BME280;5858;43.076;25.626;2023-03-13T00:20:29;99694.69;;;6.03;52.60
11605;BME280;5858;43.076;25.626;2023-03-13T00:23:14;99484.81;;;4.74;52.64
11605;BME280;5858;43.076;25.626;2023-03-13T00:26:00;99656.16;;;5.80;53.14
11605;BME280;5858;43.076;25.626;2023-03-13T00:28:46;99737.25;;;6.30;53.49
11605;BME280;5858;43.076;25.626;2023-03-13T00:31:33;99615.16;;;5.55;53.26
11605;BME280;5858;43.076;25.626;2023-03-13T00:37:55;99690.25;;;5.94;54.92
11605;BME280;5858;43.076;25.626;2023-03-13T00:40:37;99513.25;;;4.82;54.97
11605;BME280;5858;43.076;25.626;2023-03-13T00:43:23;99752.84;;;6.16;54.98
11605;BME280;5858;43.076;25.626;2023-03-13T00:46:09;99687.59;;;5.94;55.35
11605;BME280;5858;43.076;25.626;2023-03-13T00:48:53;99694.00;;;6.01;56.51
11605;BME280;5858;43.076;25.626;2023-03-13T00:51:33;99685.50;;;5.88;57.66
11605;BME280;5858;43.076;25.626;2023-03-13T00:54:16;99703.25;;;5.97;56.33
11605;BME280;5858;43.076;25.626;2023-03-13T00:57:35;99768.75;;;6.25;56.31
11605;BME280;5858;43.076;25.626;2023-03-13T01:00:15;99577.41;;;5.04;57.11
11605;BME280;5858;43.076;25.626;2023-03-13T01:03:01;99725.56;;;6.14;57.57
11605;BME280;5858;43.076;25.626;2023-03-13T01:05:44;99696.84;;;5.80;56.91
11605;BME280;5858;43.076;25.626;2023-03-13T01:08:17;99728.81;;;5.98;56.78
11605;BME280;5858;43.076;25.626;2023-03-13T01:11:11;99624.69;;;5.19;57.27
11605;BME280;5858;43.076;25.626;2023-03-13T01:17:02;99617.31;;;5.22;57.76
11605;BME280;5858;43.076;25.626;2023-03-13T01:19:31;99588.88;;;4.86;58.69
11605;BME280;5858;43.076;25.626;2023-03-13T01:22:09;99565.41;;;4.62;58.30
11605;BME280;5858;43.076;25.626;2023-03-13T01:24:41;99546.03;;;4.52;60.01
11605;BME280;5858;43.076;25.626;2023-03-13T01:27:16;99754.69;;;5.77;59.26
11605;BME280;5858;43.076;25.626;2023-03-13T01:29:46;99517.88;;;4.51;59.04
11605;BME280;5858;43.076;25.626;2023-03-13T01:32:28;99779.56;;;5.85;59.02
11605;BME280;5858;43.076;25.626;2023-03-13T01:34:57;99747.56;;;5.87;59.10
11605;BME280;5858;43.076;25.626;2023-03-13T01:37:40;99580.47;;;4.61;59.62
11605;BME280;5858;43.076;25.626;2023-03-13T01:40:26;99759.31;;;5.75;59.93
11605;BME280;5858;43.076;25.626;2023-03-13T01:46:44;99694.53;;;5.29;60.68
11605;BME280;5858;43.076;25.626;2023-03-13T01:49:40;99592.88;;;4.41;61.41
11605;BME280;5858;43.076;25.626;2023-03-13T01:52:23;99765.59;;;5.35;61.99
11605;BME280;5858;43.076;25.626;2023-03-13T01:55:06;99572.72;;;4.10;62.37
11605;BME280;5858;43.076;25.626;2023-03-13T02:01:08;99616.00;;;4.30;62.81
11605;BME280;5858;43.076;25.626;2023-03-13T02:03:48;99798.28;;;5.45;62.85
11605;BME280;5858;43.076;25.626;2023-03-13T02:06:45;99639.72;;;4.41;62.83
11605;BME280;5858;43.076;25.626;2023-03-13T02:09:29;99636.16;;;4.11;63.32
11605;BME280;5858;43.076;25.626;2023-03-13T02:12:37;99742.38;;;4.89;63.36
11605;BME280;5858;43.076;25.626;2023-03-13T02:15:17;99618.28;;;4.04;64.31
11605;BME280;5858;43.076;25.626;2023-03-13T02:17:58;99595.94;;;3.87;63.68
11605;BME280;5858;43.076;25.626;2023-03-13T02:20:46;99820.88;;;5.20;63.89
11605;BME280;5858;43.076;25.626;2023-03-13T02:23:57;99743.22;;;4.49;66.31
11605;BME280;5858;43.076;25.626;2023-03-13T02:26:59;99720.91;;;4.21;67.13
11605;BME280;5858;43.076;25.626;2023-03-13T02:29:39;99739.47;;;4.21;67.18
11605;BME280;5858;43.076;25.626;2023-03-13T02:32:11;99612.16;;;3.73;67.43
11605;BME280;5858;43.076;25.626;2023-03-13T02:35:08;99800.13;;;4.55;68.35
11605;BME280;5858;43.076;25.626;2023-03-13T02:37:59;99703.16;;;4.02;68.56
11605;BME280;5858;43.076;25.626;2023-03-13T02:40:30;99770.94;;;4.45;68.84
11605;BME280;5858;43.076;25.626;2023-03-13T02:43:03;99626.31;;;3.62;67.97
11605;BME280;5858;43.076;25.626;2023-03-13T02:45:37;99749.41;;;4.29;68.47
11605;BME280;5858;43.076;25.626;2023-03-13T02:50:58;99694.31;;;3.92;69.00
11605;BME280;5858;43.076;25.626;2023-03-13T02:53:52;99756.53;;;4.07;68.86
11605;BME280;5858;43.076;25.626;2023-03-13T02:57:03;99830.13;;;4.55;69.67
11605;BME280;5858;43.076;25.626;2023-03-13T02:59:35;99848.22;;;4.50;69.36
11605;BME280;5858;43.076;25.626;2023-03-13T03:02:24;99858.56;;;4.53;70.04
11605;BME280;5858;43.076;25.626;2023-03-13T03:05:03;99640.84;;;3.26;69.61
11605;BME280;5858;43.076;25.626;2023-03-13T03:07:42;99753.91;;;3.87;68.96
11605;BME280;5858;43.076;25.626;2023-03-13T03:10:10;99762.44;;;3.90;68.86
11605;BME280;5858;43.076;25.626;2023-03-13T03:12:45;99822.09;;;4.15;69.83
11605;BME280;5858;43.076;25.626;2023-03-13T03:15:44;99821.13;;;4.16;69.09
11605;BME280;5858;43.076;25.626;2023-03-13T03:18:20;99703.41;;;3.16;69.24
11605;BME280;5858;43.076;25.626;2023-03-13T03:20:47;99878.25;;;4.30;69.77
11605;BME280;5858;43.076;25.626;2023-03-13T03:23:15;99871.31;;;4.18;70.49
11605;BME280;5858;43.076;25.626;2023-03-13T03:25:45;99708.16;;;3.33;70.05
11605;BME280;5858;43.076;25.626;2023-03-13T03:28:13;99768.63;;;3.59;70.29
11605;BME280;5858;43.076;25.626;2023-03-13T03:30:45;99739.78;;;3.56;70.02
11605;BME280;5858;43.076;25.626;2023-03-13T03:33:14;99741.72;;;3.54;70.42
11605;BME280;5858;43.076;25.626;2023-03-13T03:36:01;99886.34;;;4.17;70.68
11605;BME280;5858;43.076;25.626;2023-03-13T03:38:29;99716.25;;;2.89;70.77
11605;BME280;5858;43.076;25.626;2023-03-13T03:40:57;99907.78;;;3.93;71.70
11605;BME280;5858;43.076;25.626;2023-03-13T03:43:25;99746.53;;;2.84;72.90
11605;BME280;5858;43.076;25.626;2023-03-13T03:45:58;99857.56;;;3.39;72.99
11605;BME280;5858;43.076;25.626;2023-03-13T03:48:25;99824.00;;;2.85;73.74
11605;BME280;5858;43.076;25.626;2023-03-13T03:50:58;99905.06;;;3.72;73.17
11605;BME280;5858;43.076;25.626;2023-03-13T03:53:39;99916.06;;;3.57;73.84
11605;BME280;5858;43.076;25.626;2023-03-13T03:56:09;99909.25;;;3.43;73.65
11605;BME280;5858;43.076;25.626;2023-03-13T03:58:44;99884.88;;;3.17;73.39
11605;BME280;5858;43.076;25.626;2023-03-13T04:01:43;99835.97;;;3.11;72.96
11605;BME280;5858;43.076;25.626;2023-03-13T04:04:18;99894.22;;;3.43;73.64
11605;BME280;5858;43.076;25.626;2023-03-13T04:06:55;99914.19;;;3.36;72.86
11605;BME280;5858;43.076;25.626;2023-03-13T04:09:25;99861.06;;;3.17;72.86
11605;BME280;5858;43.076;25.626;2023-03-13T04:11:55;99935.06;;;3.62;73.25
11605;BME280;5858;43.076;25.626;2023-03-13T04:14:26;99736.13;;;2.38;73.13
11605;BME280;5858;43.076;25.626;2023-03-13T04:16:59;99947.06;;;3.66;73.16
11605;BME280;5858;43.076;25.626;2023-03-13T04:19:28;99765.66;;;2.55;73.17
11605;BME280;5858;43.076;25.626;2023-03-13T04:21:55;99964.19;;;3.51;73.29
11605;BME280;5858;43.076;25.626;2023-03-13T04:24:23;99732.28;;;2.31;72.67
11605;BME280;5858;43.076;25.626;2023-03-13T04:26:51;99831.91;;;2.74;73.59
11605;BME280;5858;43.076;25.626;2023-03-13T04:29:20;99959.25;;;3.46;74.36
11605;BME280;5858;43.076;25.626;2023-03-13T04:31:49;99775.59;;;2.06;74.92
11605;BME280;5858;43.076;25.626;2023-03-13T04:34:20;99884.50;;;2.55;75.54
11605;BME280;5858;43.076;25.626;2023-03-13T04:36:47;99893.78;;;2.94;74.87
11605;BME280;5858;43.076;25.626;2023-03-13T04:39:15;99934.28;;;3.05;74.84
11605;BME280;5858;43.076;25.626;2023-03-13T04:41:42;99777.75;;;2.12;74.78
11605;BME280;5858;43.076;25.626;2023-03-13T04:44:09;99943.03;;;3.28;74.54
11605;BME280;5858;43.076;25.626;2023-03-13T04:46:36;99997.97;;;3.47;74.55
11605;BME280;5858;43.076;25.626;2023-03-13T04:49:03;99986.44;;;3.48;74.72
11605;BME280;5858;43.076;25.626;2023-03-13T04:51:32;99991.25;;;3.32;74.10
11605;BME280;5858;43.076;25.626;2023-03-13T04:53:59;100003.88;;;3.51;73.80
11605;BME280;5858;43.076;25.626;2023-03-13T04:56:27;99948.09;;;3.31;73.78
11605;BME280;5858;43.076;25.626;2023-03-13T04:58:54;99971.78;;;3.44;73.95
11605;BME280;5858;43.076;25.626;2023-03-13T05:01:22;99915.66;;;2.96;73.63
11605;BME280;5858;43.076;25.626;2023-03-13T05:03:49;100004.59;;;3.41;72.21
11605;BME280;5858;43.076;25.626;2023-03-13T05:06:16;99845.13;;;2.40;72.08
11605;BME280;5858;43.076;25.626;2023-03-13T05:08:45;99962.50;;;3.16;72.67
11605;BME280;5858;43.076;25.626;2023-03-13T05:11:12;99988.47;;;3.44;71.60
11605;BME280;5858;43.076;25.626;2023-03-13T05:13:40;99813.44;;;2.40;69.94
11605;BME280;5858;43.076;25.626;2023-03-13T05:16:07;99997.84;;;3.26;70.96
11605;BME280;5858;43.076;25.626;2023-03-13T05:18:36;99843.06;;;2.33;70.70
11605;BME280;5858;43.076;25.626;2023-03-13T05:21:04;99881.88;;;2.77;70.04
11605;BME280;5858;43.076;25.626;2023-03-13T05:23:31;100005.53;;;3.63;70.02
11605;BME280;5858;43.076;25.626;2023-03-13T05:26:00;100011.91;;;3.83;69.42
11605;BME280;5858;43.076;25.626;2023-03-13T05:28:27;99855.47;;;2.88;70.03
11605;BME280;5858;43.076;25.626;2023-03-13T05:30:54;99959.59;;;3.53;69.53
11605;BME280;5858;43.076;25.626;2023-03-13T05:33:21;99985.66;;;3.91;68.86
11605;BME280;5858;43.076;25.626;2023-03-13T05:35:48;99943.16;;;3.92;67.38
11605;BME280;5858;43.076;25.626;2023-03-13T05:38:16;100009.44;;;4.66;66.43
11605;BME280;5858;43.076;25.626;2023-03-13T05:40:43;100010.28;;;4.87;64.55
11605;BME280;5858;43.076;25.626;2023-03-13T05:43:14;100057.31;;;5.06;63.48
11605;BME280;5858;43.076;25.626;2023-03-13T05:45:44;100001.88;;;5.03;62.45
11605;BME280;5858;43.076;25.626;2023-03-13T05:48:12;99854.50;;;4.49;60.11
11605;BME280;5858;43.076;25.626;2023-03-13T05:50:39;100039.94;;;5.74;58.61
11605;BME280;5858;43.076;25.626;2023-03-13T05:53:06;99912.34;;;5.26;59.33
11605;BME280;5858;43.076;25.626;2023-03-13T05:55:36;100024.22;;;6.02;60.83
11605;BME280;5858;43.076;25.626;2023-03-13T05:58:04;100024.06;;;5.93;60.07
11605;BME280;5858;43.076;25.626;2023-03-13T06:00:34;99885.41;;;4.90;59.73
11605;BME280;5858;43.076;25.626;2023-03-13T06:03:01;99986.97;;;5.73;60.03
11605;BME280;5858;43.076;25.626;2023-03-13T06:05:34;99891.56;;;5.31;59.53
11605;BME280;5858;43.076;25.626;2023-03-13T06:08:03;99912.84;;;5.60;58.23
11605;BME280;5858;43.076;25.626;2023-03-13T06:10:32;99924.53;;;6.07;56.78
11605;BME280;5858;43.076;25.626;2023-03-13T06:12:59;99972.38;;;6.75;54.56
11605;BME280;5858;43.076;25.626;2023-03-13T06:15:27;99959.47;;;6.80;52.40
11605;BME280;5858;43.076;25.626;2023-03-13T06:17:58;99995.28;;;7.42;51.26
11605;BME280;5858;43.076;25.626;2023-03-13T06:20:26;99927.72;;;7.15;50.54
11605;BME280;5858;43.076;25.626;2023-03-13T06:22:56;99867.28;;;6.98;50.23
11605;BME280;5858;43.076;25.626;2023-03-13T06:25:23;99999.63;;;7.98;49.73
11605;BME280;5858;43.076;25.626;2023-03-13T06:27:51;99929.41;;;7.71;50.37
11605;BME280;5858;43.076;25.626;2023-03-13T06:30:18;99993.72;;;8.21;49.23
11605;BME280;5858;43.076;25.626;2023-03-13T06:32:45;100010.94;;;8.27;48.15
11605;BME280;5858;43.076;25.626;2023-03-13T06:35:16;99882.44;;;7.25;48.62
11605;BME280;5858;43.076;25.626;2023-03-13T06:37:43;100010.78;;;7.83;48.90
11605;BME280;5858;43.076;25.626;2023-03-13T06:40:11;99949.31;;;7.40;50.50
11605;BME280;5858;43.076;25.626;2023-03-13T06:42:38;99965.16;;;7.69;50.05
11605;BME280;5858;43.076;25.626;2023-03-13T06:45:06;99883.91;;;7.10;50.06
11605;BME280;5858;43.076;25.626;2023-03-13T06:47:34;100067.88;;;8.08;48.09
11605;BME280;5858;43.076;25.626;2023-03-13T06:50:01;99881.75;;;7.23;49.36
11605;BME280;5858;43.076;25.626;2023-03-13T06:52:29;100039.50;;;8.17;47.79
11605;BME280;5858;43.076;25.626;2023-03-13T06:54:56;99992.00;;;7.85;47.36
11605;BME280;5858;43.076;25.626;2023-03-13T06:57:25;100020.34;;;8.04;47.83
11605;BME280;5858;43.076;25.626;2023-03-13T06:59:52;99966.78;;;7.79;47.40
11605;BME280;5858;43.076;25.626;2023-03-13T07:02:19;100027.47;;;8.31;47.29
11605;BME280;5858;43.076;25.626;2023-03-13T07:04:46;100057.41;;;8.52;47.05
11605;BME280;5858;43.076;25.626;2023-03-13T07:07:13;99919.66;;;7.80;47.29
11605;BME280;5858;43.076;25.626;2023-03-13T07:09:42;100023.00;;;8.67;46.74
11605;BME280;5858;43.076;25.626;2023-03-13T07:12:09;100046.09;;;8.76;45.46
11605;BME280;5858;43.076;25.626;2023-03-13T07:14:36;100014.78;;;8.42;45.09
11605;BME280;5858;43.076;25.626;2023-03-13T07:17:03;100044.13;;;8.78;44.60
11605;BME280;5858;43.076;25.626;2023-03-13T07:19:30;100043.44;;;8.13;44.74
11605;BME280;5858;43.076;25.626;2023-03-13T07:21:57;99980.78;;;7.81;46.01
11605;BME280;5858;43.076;25.626;2023-03-13T07:24:24;100012.00;;;8.16;46.72
11605;BME280;5858;43.076;25.626;2023-03-13T07:26:52;99877.06;;;7.52;44.16
11605;BME280;5858;43.076;25.626;2023-03-13T07:29:20;100017.75;;;8.39;44.12
11605;BME280;5858;43.076;25.626;2023-03-13T07:31:47;100044.09;;;8.42;44.08
11605;BME280;5858;43.076;25.626;2023-03-13T07:34:14;100040.22;;;8.37;44.46
11605;BME280;5858;43.076;25.626;2023-03-13T07:36:41;100000.28;;;8.09;44.54
11605;BME280;5858;43.076;25.626;2023-03-13T07:39:08;99968.63;;;7.97;45.46
11605;BME280;5858;43.076;25.626;2023-03-13T07:41:38;99953.66;;;8.13;44.94
11605;BME280;5858;43.076;25.626;2023-03-13T07:44:08;100023.31;;;8.46;44.55
11605;BME280;5858;43.076;25.626;2023-03-13T07:46:38;99834.22;;;7.28;44.25
11605;BME280;5858;43.076;25.626;2023-03-13T07:49:05;99990.09;;;8.40;44.27
11605;BME280;5858;43.076;25.626;2023-03-13T07:51:33;100018.06;;;8.54;42.84
11605;BME280;5858;43.076;25.626;2023-03-13T07:54:06;99930.56;;;8.22;43.35
11605;BME280;5858;43.076;25.626;2023-03-13T07:56:36;99924.09;;;8.25;43.19
11605;BME280;5858;43.076;25.626;2023-03-13T07:59:04;100012.91;;;8.96;42.84
11605;BME280;5858;43.076;25.626;2023-03-13T08:01:36;100018.91;;;9.16;42.25
11605;BME280;5858;43.076;25.626;2023-03-13T08:04:04;99884.41;;;8.39;42.53
11605;BME280;5858;43.076;25.626;2023-03-13T08:06:33;99924.88;;;8.78;42.82
11605;BME280;5858;43.076;25.626;2023-03-13T08:09:02;99868.34;;;8.75;43.11
11605;BME280;5858;43.076;25.626;2023-03-13T08:11:33;99805.94;;;8.42;41.90
11605;BME280;5858;43.076;25.626;2023-03-13T08:14:01;99818.47;;;8.49;42.00
11605;BME280;5858;43.076;25.626;2023-03-13T08:16:32;99967.53;;;9.22;41.37
11605;BME280;5858;43.076;25.626;2023-03-13T08:19:10;100005.22;;;9.19;42.02
11605;BME280;5858;43.076;25.626;2023-03-13T08:21:37;99998.25;;;9.26;41.24
11605;BME280;5858;43.076;25.626;2023-03-13T08:24:06;99980.69;;;9.15;41.64
11605;BME280;5858;43.076;25.626;2023-03-13T08:26:36;99972.66;;;9.15;41.92
11605;BME280;5858;43.076;25.626;2023-03-13T08:29:06;99949.19;;;9.27;41.23
11605;BME280;5858;43.076;25.626;2023-03-13T08:31:35;99969.22;;;9.57;40.98
11605;BME280;5858;43.076;25.626;2023-03-13T08:34:02;99992.34;;;9.83;40.26
11605;BME280;5858;43.076;25.626;2023-03-13T08:36:36;99904.34;;;9.39;40.17
11605;BME280;5858;43.076;25.626;2023-03-13T08:39:10;99966.31;;;9.93;40.35
11605;BME280;5858;43.076;25.626;2023-03-13T08:41:37;99798.59;;;9.04;39.55
11605;BME280;5858;43.076;25.626;2023-03-13T08:44:07;99953.59;;;9.87;39.08
11605;BME280;5858;43.076;25.626;2023-03-13T08:46:35;99987.16;;;10.23;39.59
11605;BME280;5858;43.076;25.626;2023-03-13T08:49:03;99812.81;;;9.12;38.33
11605;BME280;5858;43.076;25.626;2023-03-13T08:51:32;99957.16;;;10.03;39.06
11605;BME280;5858;43.076;25.626;2023-03-13T08:54:01;99890.06;;;9.56;38.77
11605;BME280;5858;43.076;25.626;2023-03-13T08:56:32;99908.31;;;9.85;38.51
11605;BME280;5858;43.076;25.626;2023-03-13T08:59:00;99934.78;;;10.13;38.99
11605;BME280;5858;43.076;25.626;2023-03-13T09:01:29;99896.44;;;9.79;39.26
11605;BME280;5858;43.076;25.626;2023-03-13T09:04:00;99986.09;;;10.16;39.14
11605;BME280;5858;43.076;25.626;2023-03-13T09:06:28;99962.38;;;10.13;39.07
11605;BME280;5858;43.076;25.626;2023-03-13T09:08:55;99932.28;;;10.03;39.42
11605;BME280;5858;43.076;25.626;2023-03-13T09:11:24;99898.63;;;9.84;38.56
11605;BME280;5858;43.076;25.626;2023-03-13T09:13:54;99882.13;;;9.97;38.32
11605;BME280;5858;43.076;25.626;2023-03-13T09:16:24;99788.78;;;9.21;38.30
11605;BME280;5858;43.076;25.626;2023-03-13T09:18:52;99775.63;;;9.27;38.35
11605;BME280;5858;43.076;25.626;2023-03-13T09:21:21;99866.25;;;9.95;38.35
11605;BME280;5858;43.076;25.626;2023-03-13T09:23:50;99855.41;;;9.97;37.37
11605;BME280;5858;43.076;25.626;2023-03-13T09:26:19;99780.13;;;9.27;37.70
11605;BME280;5858;43.076;25.626;2023-03-13T09:32:01;99820.59;;;9.48;36.72
11605;BME280;5858;43.076;25.626;2023-03-13T09:34:32;99893.88;;;10.20;36.88
11605;BME280;5858;43.076;25.626;2023-03-13T09:40:36;99878.13;;;10.17;37.43
11605;BME280;5858;43.076;25.626;2023-03-13T09:46:22;99920.28;;;10.88;38.91
11605;BME280;5858;43.076;25.626;2023-03-13T09:49:04;99756.13;;;10.08;38.98
11605;BME280;5858;43.076;25.626;2023-03-13T09:51:37;99750.75;;;10.32;38.77
11605;BME280;5858;43.076;25.626;2023-03-13T09:54:08;99881.91;;;11.43;38.60
11605;BME280;5858;43.076;25.626;2023-03-13T09:56:44;99752.97;;;10.76;37.56
11605;BME280;5858;43.076;25.626;2023-03-13T09:59:40;99882.56;;;11.76;37.74
11605;BME280;5858;43.076;25.626;2023-03-13T10:02:20;99911.19;;;12.15;37.81
11605;BME280;5858;43.076;25.626;2023-03-13T10:04:57;99747.72;;;11.22;35.21
11605;BME280;5858;43.076;25.626;2023-03-13T10:07:29;99792.97;;;11.48;33.59
11605;BME280;5858;43.076;25.626;2023-03-13T10:09:57;99803.84;;;11.46;36.04
11605;BME280;5858;43.076;25.626;2023-03-13T10:12:36;99859.78;;;11.80;36.39
11605;BME280;5858;43.076;25.626;2023-03-13T10:15:27;99773.34;;;10.93;36.10
11605;BME280;5858;43.076;25.626;2023-03-13T10:18:05;99725.00;;;10.39;37.13
11605;BME280;5858;43.076;25.626;2023-03-13T10:20:46;99880.44;;;11.41;36.04
11605;BME280;5858;43.076;25.626;2023-03-13T10:23:17;99773.63;;;10.59;36.27
11605;BME280;5858;43.076;25.626;2023-03-13T10:25:46;99855.72;;;11.22;36.17
11605;BME280;5858;43.076;25.626;2023-03-13T10:28:15;99803.59;;;11.02;35.35
11605;BME280;5858;43.076;25.626;2023-03-13T10:30:46;99749.75;;;10.42;34.99
11605;BME280;5858;43.076;25.626;2023-03-13T10:33:24;99819.28;;;11.05;35.96
11605;BME280;5858;43.076;25.626;2023-03-13T10:36:05;99710.44;;;10.50;35.20
11605;BME280;5858;43.076;25.626;2023-03-13T10:38:45;99771.41;;;11.10;34.64
11605;BME280;5858;43.076;25.626;2023-03-13T10:47:39;99850.22;;;11.86;34.62
11605;BME280;5858;43.076;25.626;2023-03-13T10:50:25;99776.41;;;11.44;34.11
11605;BME280;5858;43.076;25.626;2023-03-13T10:56:29;99732.84;;;11.19;34.30
11605;BME280;5858;43.076;25.626;2023-03-13T10:59:02;99830.66;;;12.00;34.16
11605;BME280;5858;43.076;25.626;2023-03-13T11:01:42;99830.13;;;12.05;34.09
11605;BME280;5858;43.076;25.626;2023-03-13T11:04:24;99823.09;;;12.04;33.97
11605;BME280;5858;43.076;25.626;2023-03-13T11:06:58;99696.41;;;11.33;33.61
11605;BME280;5858;43.076;25.626;2023-03-13T11:09:27;99757.44;;;11.68;33.36
11605;BME280;5858;43.076;25.626;2023-03-13T11:12:02;99835.44;;;12.27;33.36
11605;BME280;5858;43.076;25.626;2023-03-13T11:14:31;99816.31;;;12.31;33.03
11605;BME280;5858;43.076;25.626;2023-03-13T11:17:02;99735.09;;;11.84;33.22
11605;BME280;5858;43.076;25.626;2023-03-13T11:19:46;99791.25;;;12.01;32.41
11605;BME280;5858;43.076;25.626;2023-03-13T11:22:29;99801.09;;;12.08;32.27
11605;BME280;5858;43.076;25.626;2023-03-13T11:25:20;99801.28;;;12.21;32.41
11605;BME280;5858;43.076;25.626;2023-03-13T11:28:10;99678.84;;;11.53;32.83
11605;BME280;5858;43.076;25.626;2023-03-13T11:31:00;99681.00;;;11.73;33.04
11605;BME280;5858;43.076;25.626;2023-03-13T11:33:37;99781.16;;;12.40;32.75
11605;BME280;5858;43.076;25.626;2023-03-13T11:36:21;99747.25;;;12.24;32.67
11605;BME280;5858;43.076;25.626;2023-03-13T11:38:53;99763.50;;;12.31;32.59
11605;BME280;5858;43.076;25.626;2023-03-13T11:41:38;99775.72;;;12.63;32.37
11605;BME280;5858;43.076;25.626;2023-03-13T11:44:35;99705.44;;;12.15;31.76
11605;BME280;5858;43.076;25.626;2023-03-13T11:47:25;99724.88;;;12.17;32.28
11605;BME280;5858;43.076;25.626;2023-03-13T11:50:17;99719.97;;;12.21;32.11
11605;BME280;5858;43.076;25.626;2023-03-13T11:53:06;99581.44;;;11.46;31.54
11605;BME280;5858;43.076;25.626;2023-03-13T11:55:48;99579.78;;;11.45;31.66
11605;BME280;5858;43.076;25.626;2023-03-13T11:58:29;99635.59;;;12.09;31.15
11605;BME280;5858;43.076;25.626;2023-03-13T12:01:13;99733.03;;;12.83;31.14
11605;BME280;5858;43.076;25.626;2023-03-13T12:03:54;99643.28;;;12.26;30.87
11605;BME280;5858;43.076;25.626;2023-03-13T12:06:27;99718.56;;;12.69;30.30
11605;BME280;5858;43.076;25.626;2023-03-13T12:09:02;99581.25;;;11.85;31.01
11605;BME280;5858;43.076;25.626;2023-03-13T12:11:40;99629.22;;;12.39;30.39
11605;BME280;5858;43.076;25.626;2023-03-13T12:14:14;99595.94;;;12.04;30.26
11605;BME280;5858;43.076;25.626;2023-03-13T12:16:46;99746.69;;;13.17;30.15
11605;BME280;5858;43.076;25.626;2023-03-13T12:19:22;99642.63;;;12.90;30.46
11605;BME280;5858;43.076;25.626;2023-03-13T12:21:53;99681.06;;;13.12;30.20
11605;BME280;5858;43.076;25.626;2023-03-13T12:24:26;99655.72;;;13.00;30.21
11605;BME280;5858;43.076;25.626;2023-03-13T12:26:59;99585.97;;;12.49;31.45
11605;BME280;5858;43.076;25.626;2023-03-13T12:29:38;99715.34;;;13.10;30.94
11605;BME280;5858;43.076;25.626;2023-03-13T12:32:15;99635.91;;;12.65;30.28
11605;BME280;5858;43.076;25.626;2023-03-13T12:34:58;99640.53;;;12.71;30.42
11605;BME280;5858;43.076;25.626;2023-03-13T12:37:33;99605.09;;;12.60;30.68
11605;BME280;5858;43.076;25.626;2023-03-13T12:40:14;99673.09;;;13.18;30.23
11605;BME280;5858;43.076;25.626;2023-03-13T12:42:48;99649.72;;;12.61;30.38
11605;BME280;5858;43.076;25.626;2023-03-13T12:45:21;99727.13;;;13.09;30.02
11605;BME280;5858;43.076;25.626;2023-03-13T12:48:20;99661.09;;;12.78;29.89
11605;BME280;5858;43.076;25.626;2023-03-13T12:51:10;99640.97;;;12.74;30.88
11605;BME280;5858;43.076;25.626;2023-03-13T12:53:57;99567.03;;;12.21;30.46
11605;BME280;5858;43.076;25.626;2023-03-13T12:56:42;99624.75;;;12.46;30.19
11605;BME280;5858;43.076;25.626;2023-03-13T12:59:18;99583.88;;;12.29;30.15
11605;BME280;5858;43.076;25.626;2023-03-13T13:01:53;99614.50;;;12.71;30.34
11605;BME280;5858;43.076;25.626;2023-03-13T13:04:24;99548.38;;;12.13;29.61
11605;BME280;5858;43.076;25.626;2023-03-13T13:07:04;99663.66;;;12.86;29.89
11605;BME280;5858;43.076;25.626;2023-03-13T13:09:34;99721.94;;;13.22;29.97
11605;BME280;5858;43.076;25.626;2023-03-13T13:12:18;99627.66;;;12.66;30.10
11605;BME280;5858;43.076;25.626;2023-03-13T13:15:00;99539.41;;;12.06;29.99
11605;BME280;5858;43.076;25.626;2023-03-13T13:17:55;99635.16;;;12.71;29.79
11605;BME280;5858;43.076;25.626;2023-03-13T13:20:44;99631.81;;;12.83;29.74
11605;BME280;5858;43.076;25.626;2023-03-13T13:23:33;99622.47;;;12.79;29.80
11605;BME280;5858;43.076;25.626;2023-03-13T13:32:40;99553.44;;;12.37;28.94
11605;BME280;5858;43.076;25.626;2023-03-13T13:35:22;99548.53;;;12.26;29.45
11605;BME280;5858;43.076;25.626;2023-03-13T13:37:52;99526.56;;;12.01;28.97
11605;BME280;5858;43.076;25.626;2023-03-13T13:40:27;99577.41;;;12.39;28.94
11605;BME280;5858;43.076;25.626;2023-03-13T13:42:56;99653.44;;;12.97;29.08
11605;BME280;5858;43.076;25.626;2023-03-13T13:45:27;99652.94;;;13.08;29.41
11605;BME280;5858;43.076;25.626;2023-03-13T13:48:23;99673.47;;;13.15;28.77
11605;BME280;5858;43.076;25.626;2023-03-13T13:54:04;99678.88;;;13.37;28.93
11605;BME280;5858;43.076;25.626;2023-03-13T13:56:55;99642.53;;;13.19;28.80
11605;BME280;5858;43.076;25.626;2023-03-13T13:59:38;99676.97;;;13.52;28.75
11605;BME280;5858;43.076;25.626;2023-03-13T14:02:25;99680.78;;;13.64;28.66
11605;BME280;5858;43.076;25.626;2023-03-13T14:05:01;99615.25;;;13.22;27.81
11605;BME280;5858;43.076;25.626;2023-03-13T14:07:40;99648.94;;;13.40;28.24
11605;BME280;5858;43.076;25.626;2023-03-13T14:10:32;99487.66;;;12.26;28.10
11605;BME280;5858;43.076;25.626;2023-03-13T14:13:08;99577.31;;;12.68;27.96
11605;BME280;5858;43.076;25.626;2023-03-13T14:15:40;99509.50;;;12.23;28.42
11605;BME280;5858;43.076;25.626;2023-03-13T14:18:10;99590.97;;;12.73;28.16
11605;BME280;5858;43.076;25.626;2023-03-13T14:20:39;99497.41;;;12.13;28.45
11605;BME280;5858;43.076;25.626;2023-03-13T14:23:29;99599.59;;;12.83;28.83
11605;BME280;5858;43.076;25.626;2023-03-13T14:26:08;99592.34;;;12.84;27.86
11605;BME280;5858;43.076;25.626;2023-03-13T14:28:38;99486.50;;;12.14;27.97
11605;BME280;5858;43.076;25.626;2023-03-13T14:31:07;99663.63;;;13.22;27.51
11605;BME280;5858;43.076;25.626;2023-03-13T14:33:39;99639.63;;;13.00;27.77
11605;BME280;5858;43.076;25.626;2023-03-13T14:36:09;99627.91;;;12.86;28.00